sensor_id;sensor_type;location;lat;lon;timestamp;P1;durP1;ratioP1;P2;durP2;ratioP2
28246;SDS011;66191;53.178;22.058;2023-02-01T00:04:04;25.10;;;13.73;;
28246;SDS011;66191;53.178;22.058;2023-02-01T00:06:35;20.40;;;13.10;;
28246;SDS011;66191;53.178;22.058;2023-02-01T00:09:06;27.05;;;14.85;;
28246;SDS011;66191;53.178;22.058;2023-02-01T00:14:09;19.38;;;11.05;;
28246;SDS011;66191;53.178;22.058;2023-02-01T00:16:40;18.58;;;11.20;;
28246;SDS011;66191;53.178;22.058;2023-02-01T00:19:14;22.70;;;12.10;;
28246;SDS011;66191;53.178;22.058;2023-02-01T00:21:45;19.95;;;11.63;;
28246;SDS011;66191;53.178;22.058;2023-02-01T00:24:16;18.00;;;10.98;;
28246;SDS011;66191;53.178;22.058;2023-02-01T00:29:18;22.15;;;11.90;;
28246;SDS011;66191;53.178;22.058;2023-02-01T00:31:50;21.83;;;11.55;;
28246;SDS011;66191;53.178;22.058;2023-02-01T00:34:25;18.75;;;11.50;;
28246;SDS011;66191;53.178;22.058;2023-02-01T00:36:56;24.35;;;13.90;;
28246;SDS011;66191;53.178;22.058;2023-02-01T00:39:30;29.33;;;15.93;;
28246;SDS011;66191;53.178;22.058;2023-02-01T00:42:01;30.13;;;15.82;;
28246;SDS011;66191;53.178;22.058;2023-02-01T00:44:32;31.35;;;17.45;;
28246;SDS011;66191;53.178;22.058;2023-02-01T00:47:03;26.42;;;15.95;;
28246;SDS011;66191;53.178;22.058;2023-02-01T00:49:37;31.40;;;17.90;;
28246;SDS011;66191;53.178;22.058;2023-02-01T00:52:08;31.48;;;16.70;;
28246;SDS011;66191;53.178;22.058;2023-02-01T00:54:39;37.00;;;17.75;;
28246;SDS011;66191;53.178;22.058;2023-02-01T00:57:10;69.53;;;25.50;;
28246;SDS011;66191;53.178;22.058;2023-02-01T00:59:42;31.77;;;15.35;;
28246;SDS011;66191;53.178;22.058;2023-02-01T01:02:13;28.58;;;14.23;;
28246;SDS011;66191;53.178;22.058;2023-02-01T01:04:47;25.42;;;13.68;;
28246;SDS011;66191;53.178;22.058;2023-02-01T01:07:18;30.73;;;16.10;;
28246;SDS011;66191;53.178;22.058;2023-02-01T01:09:49;24.27;;;15.10;;
28246;SDS011;66191;53.178;22.058;2023-02-01T01:12:20;25.30;;;14.45;;
28246;SDS011;66191;53.178;22.058;2023-02-01T01:14:51;23.92;;;13.57;;
28246;SDS011;66191;53.178;22.058;2023-02-01T01:17:22;26.83;;;13.23;;
28246;SDS011;66191;53.178;22.058;2023-02-01T01:19:56;27.58;;;14.90;;
28246;SDS011;66191;53.178;22.058;2023-02-01T01:22:27;25.17;;;13.70;;
28246;SDS011;66191;53.178;22.058;2023-02-01T01:24:58;35.88;;;17.45;;
28246;SDS011;66191;53.178;22.058;2023-02-01T01:27:29;29.50;;;15.55;;
28246;SDS011;66191;53.178;22.058;2023-02-01T01:30:00;24.80;;;14.15;;
28246;SDS011;66191;53.178;22.058;2023-02-01T01:35:05;22.08;;;12.30;;
28246;SDS011;66191;53.178;22.058;2023-02-01T01:37:36;20.77;;;11.88;;
28246;SDS011;66191;53.178;22.058;2023-02-01T01:40:09;34.95;;;15.55;;
28246;SDS011;66191;53.178;22.058;2023-02-01T01:42:43;23.10;;;12.52;;
28246;SDS011;66191;53.178;22.058;2023-02-01T01:45:20;25.67;;;13.73;;
28246;SDS011;66191;53.178;22.058;2023-02-01T01:47:54;23.92;;;12.30;;
28246;SDS011;66191;53.178;22.058;2023-02-01T01:50:32;19.73;;;10.85;;
28246;SDS011;66191;53.178;22.058;2023-02-01T01:53:07;25.42;;;12.20;;
28246;SDS011;66191;53.178;22.058;2023-02-01T01:55:43;18.55;;;9.35;;
28246;SDS011;66191;53.178;22.058;2023-02-01T01:58:16;16.15;;;8.35;;
28246;SDS011;66191;53.178;22.058;2023-02-01T02:00:50;18.25;;;8.82;;
28246;SDS011;66191;53.178;22.058;2023-02-01T02:03:22;17.08;;;8.23;;
28246;SDS011;66191;53.178;22.058;2023-02-01T02:05:59;18.73;;;8.32;;
28246;SDS011;66191;53.178;22.058;2023-02-01T02:08:32;20.90;;;8.05;;
28246;SDS011;66191;53.178;22.058;2023-02-01T02:11:07;19.98;;;7.95;;
28246;SDS011;66191;53.178;22.058;2023-02-01T02:13:40;23.40;;;8.15;;
28246;SDS011;66191;53.178;22.058;2023-02-01T02:16:23;22.58;;;6.47;;
28246;SDS011;66191;53.178;22.058;2023-02-01T02:19:19;17.48;;;6.15;;
28246;SDS011;66191;53.178;22.058;2023-02-01T02:22:12;14.65;;;4.45;;
28246;SDS011;66191;53.178;22.058;2023-02-01T02:28:13;9.23;;;3.05;;
28246;SDS011;66191;53.178;22.058;2023-02-01T02:31:11;15.40;;;3.78;;
28246;SDS011;66191;53.178;22.058;2023-02-01T02:34:06;12.90;;;3.42;;
28246;SDS011;66191;53.178;22.058;2023-02-01T02:36:44;17.80;;;4.22;;
28246;SDS011;66191;53.178;22.058;2023-02-01T02:39:28;12.52;;;3.55;;
28246;SDS011;66191;53.178;22.058;2023-02-01T02:42:12;17.90;;;5.03;;
28246;SDS011;66191;53.178;22.058;2023-02-01T02:45:01;18.10;;;5.20;;
28246;SDS011;66191;53.178;22.058;2023-02-01T02:47:50;16.92;;;4.93;;
28246;SDS011;66191;53.178;22.058;2023-02-01T02:50:29;16.38;;;5.20;;
28246;SDS011;66191;53.178;22.058;2023-02-01T02:53:19;16.13;;;5.32;;
28246;SDS011;66191;53.178;22.058;2023-02-01T02:56:07;14.85;;;5.15;;
28246;SDS011;66191;53.178;22.058;2023-02-01T02:58:52;14.50;;;4.70;;
28246;SDS011;66191;53.178;22.058;2023-02-01T03:01:36;15.48;;;4.63;;
28246;SDS011;66191;53.178;22.058;2023-02-01T03:04:21;12.43;;;3.45;;
28246;SDS011;66191;53.178;22.058;2023-02-01T03:06:56;7.22;;;2.35;;
28246;SDS011;66191;53.178;22.058;2023-02-01T03:09:28;9.82;;;2.70;;
28246;SDS011;66191;53.178;22.058;2023-02-01T03:12:06;9.30;;;2.05;;
28246;SDS011;66191;53.178;22.058;2023-02-01T03:14:56;9.43;;;2.78;;
28246;SDS011;66191;53.178;22.058;2023-02-01T03:17:32;7.10;;;2.25;;
28246;SDS011;66191;53.178;22.058;2023-02-01T03:20:09;14.10;;;3.10;;
28246;SDS011;66191;53.178;22.058;2023-02-01T03:22:46;15.13;;;2.75;;
28246;SDS011;66191;53.178;22.058;2023-02-01T03:25:21;11.23;;;2.45;;
28246;SDS011;66191;53.178;22.058;2023-02-01T03:27:57;10.35;;;2.25;;
28246;SDS011;66191;53.178;22.058;2023-02-01T03:30:31;6.75;;;2.53;;
28246;SDS011;66191;53.178;22.058;2023-02-01T03:33:08;8.32;;;2.00;;
28246;SDS011;66191;53.178;22.058;2023-02-01T03:35:55;8.88;;;2.22;;
28246;SDS011;66191;53.178;22.058;2023-02-01T03:38:36;6.60;;;1.90;;
28246;SDS011;66191;53.178;22.058;2023-02-01T03:41:15;11.35;;;2.22;;
28246;SDS011;66191;53.178;22.058;2023-02-01T03:43:51;7.53;;;2.30;;
28246;SDS011;66191;53.178;22.058;2023-02-01T03:46:26;11.30;;;2.30;;
28246;SDS011;66191;53.178;22.058;2023-02-01T03:49:04;6.10;;;1.80;;
28246;SDS011;66191;53.178;22.058;2023-02-01T03:51:39;8.48;;;2.13;;
28246;SDS011;66191;53.178;22.058;2023-02-01T03:54:14;11.88;;;2.20;;
28246;SDS011;66191;53.178;22.058;2023-02-01T03:56:46;10.27;;;2.33;;
28246;SDS011;66191;53.178;22.058;2023-02-01T03:59:19;7.80;;;2.13;;
28246;SDS011;66191;53.178;22.058;2023-02-01T04:01:51;19.15;;;2.47;;
28246;SDS011;66191;53.178;22.058;2023-02-01T04:04:22;7.47;;;2.17;;
28246;SDS011;66191;53.178;22.058;2023-02-01T04:06:55;7.82;;;2.47;;
28246;SDS011;66191;53.178;22.058;2023-02-01T04:09:28;9.98;;;2.03;;
28246;SDS011;66191;53.178;22.058;2023-02-01T04:12:00;11.95;;;2.33;;
28246;SDS011;66191;53.178;22.058;2023-02-01T04:14:31;13.63;;;2.08;;
28246;SDS011;66191;53.178;22.058;2023-02-01T04:19:33;11.02;;;2.38;;
28246;SDS011;66191;53.178;22.058;2023-02-01T04:22:04;14.63;;;3.10;;
28246;SDS011;66191;53.178;22.058;2023-02-01T04:24:37;15.80;;;3.03;;
28246;SDS011;66191;53.178;22.058;2023-02-01T04:27:08;14.93;;;3.00;;
28246;SDS011;66191;53.178;22.058;2023-02-01T04:29:39;13.00;;;2.80;;
28246;SDS011;66191;53.178;22.058;2023-02-01T04:32:12;9.95;;;2.70;;
28246;SDS011;66191;53.178;22.058;2023-02-01T04:34:43;12.82;;;3.08;;
28246;SDS011;66191;53.178;22.058;2023-02-01T04:42:18;14.25;;;3.80;;
28246;SDS011;66191;53.178;22.058;2023-02-01T04:44:50;15.93;;;3.85;;
28246;SDS011;66191;53.178;22.058;2023-02-01T04:49:52;18.55;;;3.72;;
28246;SDS011;66191;53.178;22.058;2023-02-01T04:52:23;16.70;;;3.90;;
28246;SDS011;66191;53.178;22.058;2023-02-01T04:54:57;14.95;;;3.20;;
28246;SDS011;66191;53.178;22.058;2023-02-01T04:57:29;11.38;;;3.08;;
28246;SDS011;66191;53.178;22.058;2023-02-01T05:00:01;12.48;;;3.67;;
28246;SDS011;66191;53.178;22.058;2023-02-01T05:02:33;23.98;;;4.80;;
28246;SDS011;66191;53.178;22.058;2023-02-01T05:05:05;16.58;;;4.40;;
28246;SDS011;66191;53.178;22.058;2023-02-01T05:07:36;22.65;;;6.05;;
28246;SDS011;66191;53.178;22.058;2023-02-01T05:10:11;14.02;;;4.82;;
28246;SDS011;66191;53.178;22.058;2023-02-01T05:12:42;19.55;;;4.80;;
28246;SDS011;66191;53.178;22.058;2023-02-01T05:15:26;20.05;;;5.55;;
28246;SDS011;66191;53.178;22.058;2023-02-01T05:20:27;20.60;;;7.13;;
28246;SDS011;66191;53.178;22.058;2023-02-01T05:25:33;22.88;;;6.88;;
28246;SDS011;66191;53.178;22.058;2023-02-01T05:28:04;24.40;;;7.10;;
28246;SDS011;66191;53.178;22.058;2023-02-01T05:30:35;25.67;;;9.52;;
28246;SDS011;66191;53.178;22.058;2023-02-01T05:33:08;25.27;;;8.65;;
28246;SDS011;66191;53.178;22.058;2023-02-01T05:35:39;23.80;;;6.85;;
28246;SDS011;66191;53.178;22.058;2023-02-01T05:38:10;24.27;;;8.07;;
28246;SDS011;66191;53.178;22.058;2023-02-01T05:40:44;19.85;;;6.80;;
28246;SDS011;66191;53.178;22.058;2023-02-01T05:43:16;24.55;;;7.03;;
28246;SDS011;66191;53.178;22.058;2023-02-01T05:45:47;29.50;;;8.00;;
28246;SDS011;66191;53.178;22.058;2023-02-01T05:48:18;29.08;;;11.68;;
28246;SDS011;66191;53.178;22.058;2023-02-01T05:50:50;47.38;;;14.27;;
28246;SDS011;66191;53.178;22.058;2023-02-01T05:55:54;42.25;;;10.75;;
28246;SDS011;66191;53.178;22.058;2023-02-01T05:58:25;28.02;;;9.27;;
28246;SDS011;66191;53.178;22.058;2023-02-01T06:00:55;24.17;;;9.88;;
28246;SDS011;66191;53.178;22.058;2023-02-01T06:03:28;31.63;;;10.05;;
28246;SDS011;66191;53.178;22.058;2023-02-01T06:05:59;32.63;;;8.30;;
28246;SDS011;66191;53.178;22.058;2023-02-01T06:08:31;27.30;;;7.85;;
28246;SDS011;66191;53.178;22.058;2023-02-01T06:11:06;28.25;;;8.63;;
28246;SDS011;66191;53.178;22.058;2023-02-01T06:13:46;39.42;;;10.07;;
28246;SDS011;66191;53.178;22.058;2023-02-01T06:16:17;43.58;;;12.57;;
28246;SDS011;66191;53.178;22.058;2023-02-01T06:21:20;25.15;;;8.68;;
28246;SDS011;66191;53.178;22.058;2023-02-01T06:23:53;31.17;;;8.25;;
28246;SDS011;66191;53.178;22.058;2023-02-01T06:26:28;34.20;;;9.27;;
28246;SDS011;66191;53.178;22.058;2023-02-01T06:28:59;29.15;;;8.95;;
28246;SDS011;66191;53.178;22.058;2023-02-01T06:31:31;30.60;;;8.48;;
28246;SDS011;66191;53.178;22.058;2023-02-01T06:34:02;31.80;;;8.52;;
28246;SDS011;66191;53.178;22.058;2023-02-01T06:36:33;31.00;;;8.57;;
28246;SDS011;66191;53.178;22.058;2023-02-01T06:39:04;37.80;;;8.38;;
28246;SDS011;66191;53.178;22.058;2023-02-01T06:41:38;26.65;;;7.45;;
28246;SDS011;66191;53.178;22.058;2023-02-01T06:44:09;31.17;;;7.50;;
28246;SDS011;66191;53.178;22.058;2023-02-01T06:46:40;35.85;;;9.02;;
28246;SDS011;66191;53.178;22.058;2023-02-01T06:49:12;29.25;;;9.30;;
28246;SDS011;66191;53.178;22.058;2023-02-01T06:51:43;24.58;;;8.93;;
28246;SDS011;66191;53.178;22.058;2023-02-01T06:54:15;25.90;;;7.72;;
28246;SDS011;66191;53.178;22.058;2023-02-01T06:56:49;31.05;;;9.63;;
28246;SDS011;66191;53.178;22.058;2023-02-01T06:59:20;37.08;;;9.13;;
28246;SDS011;66191;53.178;22.058;2023-02-01T07:01:52;30.08;;;9.65;;
28246;SDS011;66191;53.178;22.058;2023-02-01T07:09:25;24.48;;;8.25;;
28246;SDS011;66191;53.178;22.058;2023-02-01T07:11:59;29.35;;;8.80;;
28246;SDS011;66191;53.178;22.058;2023-02-01T07:14:30;33.50;;;9.32;;
28246;SDS011;66191;53.178;22.058;2023-02-01T07:17:02;35.15;;;10.48;;
28246;SDS011;66191;53.178;22.058;2023-02-01T07:19:32;30.25;;;10.45;;
28246;SDS011;66191;53.178;22.058;2023-02-01T07:22:04;28.67;;;8.05;;
28246;SDS011;66191;53.178;22.058;2023-02-01T07:24:34;29.45;;;8.95;;
28246;SDS011;66191;53.178;22.058;2023-02-01T07:27:08;33.47;;;11.73;;
28246;SDS011;66191;53.178;22.058;2023-02-01T07:29:40;41.03;;;14.23;;
28246;SDS011;66191;53.178;22.058;2023-02-01T07:32:11;43.38;;;14.93;;
28246;SDS011;66191;53.178;22.058;2023-02-01T07:34:45;37.45;;;12.88;;
28246;SDS011;66191;53.178;22.058;2023-02-01T07:37:16;33.28;;;11.25;;
